Time;durP1;ratioP1;P1;durP2;ratioP2;P2;SDS_P1;SDS_P2;PMS_P1;PMS_P2;Temp;Humidity;BMP_temperature;BMP_pressure;BME280_temperature;BME280_humidity;BME280_pressure;Samples;Min_cycle;Max_cycle;Signal;HPM_P1;HPM_P2
2021/12/04 00:01:48;;;;;;;33.80;14.63;;;6.20;99.90;;;;;;5118349;28;20054;-90
2021/12/04 00:04:21;;;;;;;37.25;14.77;;;6.30;99.90;;;;;;5117600;28;20448;-90
2021/12/04 00:06:49;;;;;;;35.83;15.45;;;5.80;99.90;;;;;;5116711;28;20043;-89
2021/12/04 00:09:17;;;;;;;33.63;16.38;;;6.20;99.90;;;;;;5116250;28;20455;-90
2021/12/04 00:11:54;;;;;;;43.07;17.57;;;6.20;99.90;;;;;;5116456;28;20047;-89
2021/12/04 00:14:21;;;;;;;38.58;15.40;;;6.20;99.90;;;;;;5117558;28;20063;-90
2021/12/04 00:16:48;;;;;;;38.17;15.65;;;6.30;99.90;;;;;;5117980;28;20048;-90
2021/12/04 00:19:15;;;;;;;30.58;12.27;;;6.50;99.90;;;;;;5117661;28;20040;-90
2021/12/04 00:21:43;;;;;;;33.05;14.10;;;6.40;99.90;;;;;;5117352;28;20062;-90
2021/12/04 00:24:10;;;;;;;32.25;11.80;;;6.60;99.90;;;;;;5117503;28;20044;-90
2021/12/04 00:26:38;;;;;;;29.15;12.90;;;6.60;99.90;;;;;;5117759;28;20040;-90
2021/12/04 00:29:07;;;;;;;27.17;13.57;;;6.80;99.90;;;;;;5117297;28;20122;-90
2021/12/04 00:31:35;;;;;;;27.30;12.50;;;6.50;99.90;;;;;;5116964;28;20087;-90
2021/12/04 00:34:02;;;;;;;35.45;13.68;;;6.70;99.90;;;;;;5116273;28;20040;-91
2021/12/04 00:36:35;;;;;;;29.85;13.18;;;6.60;99.90;;;;;;5116867;28;20044;-91
2021/12/04 00:50:02;;;;;;;37.60;14.35;;;5.20;99.90;;;;;;5116049;28;20059;-90
2021/12/04 00:52:30;;;;;;;34.92;15.38;;;6.20;99.90;;;;;;5120033;28;20058;-91
2021/12/04 00:54:57;;;;;;;29.60;13.48;;;6.20;99.90;;;;;;5126608;28;20079;-90
2021/12/04 00:57:24;;;;;;;42.95;14.68;;;6.20;99.90;;;;;;5125670;28;20049;-90
2021/12/04 00:59:53;;;;;;;37.58;15.85;;;6.10;99.90;;;;;;5125503;28;20680;-89
2021/12/04 01:02:21;;;;;;;31.65;13.60;;;6.20;99.90;;;;;;5117312;28;20051;-90
2021/12/04 01:04:48;;;;;;;28.58;13.45;;;6.40;99.90;;;;;;5117206;28;20058;-90
2021/12/04 01:07:16;;;;;;;34.63;14.68;;;6.30;99.90;;;;;;5116259;28;20092;-91
2021/12/04 01:09:43;;;;;;;29.05;13.18;;;6.20;99.90;;;;;;5116503;28;20047;-90
2021/12/04 01:12:11;;;;;;;30.10;12.43;;;6.40;99.90;;;;;;5096214;28;20111;-90
2021/12/04 01:14:39;;;;;;;25.40;12.77;;;6.30;99.90;;;;;;5096076;28;20052;-89
2021/12/04 01:17:07;;;;;;;33.15;12.63;;;6.50;99.90;;;;;;5095780;28;20052;-91
2021/12/04 01:19:36;;;;;;;28.70;11.45;;;6.50;99.90;;;;;;5095929;28;20067;-90
2021/12/04 01:22:04;;;;;;;38.60;14.10;;;6.40;99.90;;;;;;5096154;28;20048;-90
2021/12/04 01:24:32;;;;;;;34.63;13.07;;;6.50;99.90;;;;;;5096101;28;20056;-90
2021/12/04 01:26:59;;;;;;;27.75;10.85;;;6.60;99.90;;;;;;5096512;28;20387;-90
2021/12/04 01:29:26;;;;;;;29.92;12.45;;;6.70;99.90;;;;;;5095545;28;20052;-90
2021/12/04 01:31:53;;;;;;;38.00;14.25;;;6.60;99.90;;;;;;5095332;28;20052;-90
2021/12/04 01:34:22;;;;;;;29.13;12.43;;;6.50;99.90;;;;;;5096668;28;20218;-90
2021/12/04 01:36:49;;;;;;;20.55;9.95;;;6.70;99.90;;;;;;5095318;28;20406;-90
2021/12/04 01:39:16;;;;;;;32.30;11.48;;;6.70;99.90;;;;;;5095895;28;20051;-90
2021/12/04 01:41:43;;;;;;;27.33;11.23;;;6.80;99.90;;;;;;5095568;28;20475;-90
2021/12/04 01:44:14;;;;;;;28.05;11.52;;;6.70;99.90;;;;;;5095398;28;20048;-90
2021/12/04 01:46:42;;;;;;;24.38;10.88;;;6.80;99.90;;;;;;5095105;28;20048;-90
2021/12/04 01:49:09;;;;;;;23.27;11.07;;;6.90;99.90;;;;;;5095504;28;20383;-90
2021/12/04 01:51:37;;;;;;;23.23;11.05;;;6.70;99.90;;;;;;5095964;28;20101;-90
2021/12/04 01:54:05;;;;;;;17.42;9.70;;;6.70;99.90;;;;;;5096462;28;20093;-90
2021/12/04 01:56:34;;;;;;;26.55;11.05;;;6.70;99.90;;;;;;5096261;28;20063;-90
2021/12/04 01:59:01;;;;;;;28.08;10.68;;;6.50;99.90;;;;;;5095483;28;20074;-90
2021/12/04 02:01:31;;;;;;;30.02;10.60;;;6.80;99.90;;;;;;5095165;28;20058;-91
2021/12/04 02:03:58;;;;;;;;;;;6.50;99.90;;;;;;5095512;28;20041;-91
2021/12/04 02:06:25;;;;;;;21.02;8.45;;;6.50;99.90;;;;;;5094746;28;19919;-90
2021/12/04 02:08:53;;;;;;;23.38;9.40;;;6.50;99.90;;;;;;5095321;28;20459;-90
2021/12/04 02:11:20;;;;;;;19.05;8.85;;;6.90;99.90;;;;;;5095332;28;20094;-90
2021/12/04 02:13:48;;;;;;;24.65;9.82;;;6.50;99.90;;;;;;5094721;28;20061;-90
2021/12/04 02:16:16;;;;;;;29.45;9.85;;;6.50;99.90;;;;;;5098430;28;20051;-90
2021/12/04 02:18:43;;;;;;;26.65;9.88;;;6.40;99.90;;;;;;5115829;28;20047;-90
2021/12/04 02:21:17;;;;;;;26.65;10.10;;;6.50;99.90;;;;;;5116154;28;20109;-90
2021/12/04 02:23:44;;;;;;;23.20;10.85;;;6.50;99.90;;;;;;5115197;28;20058;-90
2021/12/04 02:26:12;;;;;;;24.00;9.65;;;6.40;99.90;;;;;;5114751;28;20054;-90
2021/12/04 02:28:39;;;;;;;28.40;10.57;;;6.40;99.90;;;;;;5114872;28;20394;-91
2021/12/04 02:31:07;;;;;;;25.88;9.73;;;5.90;99.90;;;;;;5117244;28;20051;-90
2021/12/04 02:33:34;;;;;;;25.58;8.65;;;6.40;99.90;;;;;;5118184;28;20048;-90
2021/12/04 02:36:02;;;;;;;31.85;9.55;;;6.40;99.90;;;;;;5118526;28;20078;-89
2021/12/04 02:38:31;;;;;;;28.65;10.18;;;6.60;99.90;;;;;;5118586;28;20071;-90
2021/12/04 02:41:01;;;;;;;27.73;9.38;;;6.60;99.90;;;;;;5118691;28;20043;-90
2021/12/04 02:43:28;;;;;;;26.65;8.65;;;6.60;99.90;;;;;;5118398;28;20562;-90
2021/12/04 02:45:55;;;;;;;27.92;9.85;;;6.60;99.90;;;;;;5118555;28;20055;-89
2021/12/04 02:48:22;;;;;;;24.63;8.40;;;6.50;99.90;;;;;;5118174;28;20047;-90
2021/12/04 02:50:50;;;;;;;24.13;8.45;;;6.60;99.90;;;;;;5118210;28;20052;-91
2021/12/04 02:53:17;;;;;;;25.05;7.95;;;6.60;99.90;;;;;;5118456;28;20048;-90
2021/12/04 02:55:46;;;;;;;23.88;9.00;;;6.60;99.90;;;;;;5121118;28;20502;-89
2021/12/04 02:58:16;;;;;;;30.70;8.43;;;6.60;99.90;;;;;;5126157;28;20107;-88
2021/12/04 03:00:47;;;;;;;;;;;6.60;99.90;;;;;;5125590;28;20044;-90
2021/12/04 03:03:17;;;;;;;22.17;8.23;;;6.50;99.90;;;;;;5124372;28;19973;-89
2021/12/04 03:05:46;;;;;;;21.98;7.90;;;6.50;99.90;;;;;;5118908;28;20451;-89
2021/12/04 03:08:13;;;;;;;29.88;9.45;;;6.50;99.90;;;;;;5118284;28;20043;-89
2021/12/04 03:10:40;;;;;;;7.85;2.90;;;5.70;99.90;;;;;;5117469;28;20047;-89
2021/12/04 03:13:10;;;;;;;9.05;1.95;;;6.80;99.90;;;;;;5117693;28;20159;-89
2021/12/04 03:15:42;;;;;;;9.77;1.83;;;6.30;99.90;;;;;;5117423;28;20055;-89
2021/12/04 03:18:09;;;;;;;6.82;1.35;;;6.30;99.90;;;;;;5117910;28;20051;-89
2021/12/04 03:20:42;;;;;;;4.28;1.38;;;6.30;99.90;;;;;;5100636;28;20056;-89
2021/12/04 03:23:15;;;;;;;6.20;1.27;;;6.40;99.90;;;;;;5097262;28;20055;-89
2021/12/04 03:25:46;;;;;;;9.48;1.52;;;6.30;99.90;;;;;;5097331;28;20106;-89
2021/12/04 03:28:17;;;;;;;9.90;1.10;;;6.30;99.90;;;;;;5096856;28;20052;-90
2021/12/04 03:30:48;;;;;;;8.50;1.70;;;6.20;99.90;;;;;;5096672;28;20056;-89
2021/12/04 03:41:25;;;;;;;9.18;2.08;;;6.20;99.90;;;;;;5097021;28;20413;-89
2021/12/04 03:43:54;;;;;;;8.02;1.00;;;6.30;99.90;;;;;;5096930;28;20502;-91
2021/12/04 03:46:21;;;;;;;7.55;0.75;;;6.40;99.90;;;;;;5096898;28;20048;-90
2021/12/04 03:48:51;;;;;;;8.88;0.93;;;6.20;99.90;;;;;;5097016;28;20055;-90
2021/12/04 03:51:20;;;;;;;13.77;1.25;;;6.10;99.90;;;;;;5097213;28;20417;-90
2021/12/04 03:53:48;;;;;;;9.50;1.48;;;5.60;99.90;;;;;;5097136;28;20441;-90
2021/12/04 03:56:20;;;;;;;8.57;1.27;;;6.20;99.90;;;;;;5099482;28;20051;-90
2021/12/04 03:58:47;;;;;;;7.75;1.40;;;6.20;99.90;;;;;;5099932;28;20044;-89
2021/12/04 04:01:16;;;;;;;4.85;1.20;;;6.10;99.90;;;;;;5096838;28;20040;-90
2021/12/04 04:03:43;;;;;;;6.57;1.17;;;6.10;99.90;;;;;;5101219;28;20048;-91
2021/12/04 04:06:10;;;;;;;15.35;1.40;;;6.20;99.90;;;;;;5096192;28;20074;-90
2021/12/04 04:08:37;;;;;;;10.23;1.48;;;6.20;99.90;;;;;;5096156;28;20052;-90
2021/12/04 04:11:05;;;;;;;11.93;1.35;;;6.20;99.90;;;;;;5096243;28;20051;-89
2021/12/04 04:13:32;;;;;;;11.95;1.33;;;6.30;99.90;;;;;;5095853;28;20090;-90
2021/12/04 04:16:00;;;;;;;10.70;1.45;;;6.20;99.90;;;;;;5095846;28;20055;-89
2021/12/04 04:18:31;;;;;;;6.87;1.27;;;6.20;99.90;;;;;;5096123;28;20430;-89
2021/12/04 04:20:59;;;;;;;14.02;1.33;;;6.20;99.90;;;;;;5095031;28;20044;-89
2021/12/04 04:23:26;;;;;;;6.47;1.38;;;6.20;99.90;;;;;;5095492;28;20450;-90
2021/12/04 04:25:54;;;;;;;9.38;1.50;;;6.30;99.90;;;;;;5095844;28;20514;-90
2021/12/04 04:28:21;;;;;;;9.55;1.80;;;6.30;99.90;;;;;;5096472;28;20048;-90
2021/12/04 04:30:48;;;;;;;14.85;1.75;;;6.50;99.90;;;;;;5095870;28;20075;-89
2021/12/04 04:33:16;;;;;;;10.80;1.33;;;6.40;99.90;;;;;;5095923;28;20067;-90
2021/12/04 04:35:47;;;;;;;9.90;1.95;;;6.50;99.90;;;;;;5095866;28;20060;-89
2021/12/04 04:38:25;;;;;;;12.93;1.73;;;6.30;99.90;;;;;;5095737;28;20044;-89
2021/12/04 04:58:03;;;;;;;11.65;1.83;;;6.20;99.90;;;;;;5069548;28;20044;-90
2021/12/04 05:00:49;;;;;;;14.88;1.92;;;6.10;99.90;;;;;;5101221;28;20048;-90
2021/12/04 05:11:39;;;;;;;13.35;2.65;;;6.00;99.90;;;;;;5095280;28;20136;-90
2021/12/04 05:14:06;;;;;;;24.17;2.20;;;6.00;99.90;;;;;;5094668;28;20044;-90
2021/12/04 05:16:44;;;;;;;21.63;3.15;;;6.30;99.90;;;;;;5094240;28;20590;-90
2021/12/04 05:19:26;;;;;;;21.63;2.75;;;6.00;99.90;;;;;;5095930;28;20058;-90
2021/12/04 05:21:54;;;;;;;18.92;2.33;;;6.10;99.90;;;;;;5094635;28;20070;-90
2021/12/04 05:24:24;;;;;;;16.77;1.90;;;6.00;99.90;;;;;;5095473;28;20056;-90
2021/12/04 05:26:51;;;;;;;15.27;1.65;;;6.00;99.90;;;;;;5095390;28;20058;-90
2021/12/04 05:29:18;;;;;;;16.75;1.95;;;5.90;99.90;;;;;;5095155;28;20048;-90
2021/12/04 05:31:46;;;;;;;21.52;2.78;;;5.90;99.90;;;;;;5095070;28;20063;-91
2021/12/04 05:34:13;;;;;;;13.48;2.13;;;5.80;99.90;;;;;;5095898;28;20059;-90
2021/12/04 05:36:40;;;;;;;12.52;2.35;;;5.70;99.90;;;;;;5095289;28;20055;-90
2021/12/04 05:39:08;;;;;;;21.35;2.63;;;5.80;99.90;;;;;;5095663;28;20044;-90
2021/12/04 05:41:37;;;;;;;17.42;2.05;;;5.60;99.90;;;;;;5095208;28;20048;-90
2021/12/04 05:44:07;;;;;;;13.93;2.90;;;5.60;99.90;;;;;;5095143;28;20559;-90
2021/12/04 05:46:41;;;;;;;14.70;2.55;;;5.60;99.90;;;;;;5096130;28;20071;-90
2021/12/04 05:49:13;;;;;;;9.48;2.35;;;5.60;99.90;;;;;;5095547;28;20047;-90
2021/12/04 05:54:43;;;;;;;23.15;3.80;;;5.60;99.90;;;;;;5096102;28;20048;-90
2021/12/04 05:57:12;;;;;;;16.33;2.30;;;5.60;99.90;;;;;;5095468;28;20040;-90
2021/12/04 05:59:40;;;;;;;20.20;4.85;;;5.70;99.90;;;;;;5097116;28;20047;-90
2021/12/04 06:02:08;;;;;;;29.05;2.60;;;5.50;99.90;;;;;;5095558;28;20051;-90
2021/12/04 06:04:38;;;;;;;24.90;2.85;;;5.40;99.90;;;;;;5095678;28;20131;-90
2021/12/04 06:07:05;;;;;;;26.75;3.42;;;5.70;99.90;;;;;;5098404;28;20059;-90
2021/12/04 06:09:33;;;;;;;19.20;2.55;;;5.60;99.90;;;;;;5098648;28;20066;-90
2021/12/04 06:12:04;;;;;;;21.05;2.85;;;5.50;99.90;;;;;;5098777;28;20048;-90
2021/12/04 06:14:33;;;;;;;25.85;3.83;;;5.60;99.90;;;;;;5098734;28;20082;-91
2021/12/04 06:17:00;;;;;;;16.33;2.67;;;5.50;99.90;;;;;;5098717;28;20048;-90
2021/12/04 06:22:37;;;;;;;23.95;5.38;;;5.80;99.90;;;;;;5098703;28;20052;-91
2021/12/04 06:24:59;;;;;;;18.50;3.08;;;5.60;99.90;;;;;;5098031;28;20051;-89
2021/12/04 06:27:26;;;;;;;20.55;2.95;;;5.60;99.90;;;;;;5097358;28;20056;-90
2021/12/04 06:29:55;;;;;;;20.80;3.55;;;5.60;99.90;;;;;;5097345;28;20055;-89
2021/12/04 06:32:22;;;;;;;11.07;2.50;;;5.60;99.90;;;;;;5097846;28;20387;-89
2021/12/04 06:34:49;;;;;;;16.27;2.40;;;5.50;99.90;;;;;;5098086;28;20059;-90
2021/12/04 06:37:17;;;;;;;13.82;3.20;;;5.10;99.90;;;;;;5098433;28;20051;-89
2021/12/04 06:39:44;;;;;;;11.90;2.25;;;5.60;99.90;;;;;;5098530;28;20133;-90
2021/12/04 06:42:11;;;;;;;14.07;3.22;;;5.60;99.90;;;;;;5098221;28;20048;-90
2021/12/04 06:44:45;;;;;;;25.75;3.35;;;5.70;99.90;;;;;;5097728;28;20048;-89
2021/12/04 06:47:13;;;;;;;14.25;2.00;;;5.60;99.90;;;;;;5098667;28;20399;-90
2021/12/04 06:49:42;;;;;;;21.60;2.03;;;5.60;99.90;;;;;;5097689;28;20126;-90
2021/12/04 06:52:14;;;;;;;15.65;2.33;;;5.60;99.90;;;;;;5097246;28;20449;-89
2021/12/04 06:54:49;;;;;;;16.65;2.15;;;5.60;99.90;;;;;;5097712;28;20483;-89
2021/12/04 06:57:17;;;;;;;18.05;3.58;;;5.70;99.90;;;;;;5097989;28;20077;-90
2021/12/04 06:59:46;;;;;;;16.73;1.92;;;5.50;99.90;;;;;;5097718;28;20048;-90
2021/12/04 07:02:15;;;;;;;15.18;3.05;;;5.50;99.90;;;;;;5097513;28;20147;-90
2021/12/04 07:04:43;;;;;;;22.33;2.90;;;5.50;99.90;;;;;;5102436;28;20048;-89
2021/12/04 07:07:11;;;;;;;14.30;3.30;;;5.70;99.90;;;;;;5102747;28;20090;-89
2021/12/04 07:09:39;;;;;;;14.50;2.58;;;5.60;99.90;;;;;;5103172;28;20056;-89
2021/12/04 07:12:09;;;;;;;25.63;3.53;;;5.90;99.90;;;;;;5098702;28;20394;-90
2021/12/04 07:14:37;;;;;;;20.27;2.70;;;5.80;99.90;;;;;;5096415;28;20525;-89
2021/12/04 07:17:07;;;;;;;14.07;2.10;;;5.60;99.90;;;;;;5095458;28;20048;-90
2021/12/04 07:19:36;;;;;;;19.42;3.65;;;5.80;99.90;;;;;;5096220;28;20490;-89
2021/12/04 07:22:04;;;;;;;21.20;2.63;;;6.00;99.90;;;;;;5096363;28;20101;-89
2021/12/04 07:24:32;;;;;;;15.27;2.55;;;5.70;99.90;;;;;;5096607;28;20051;-89
2021/12/04 07:26:59;;;;;;;15.97;2.83;;;5.70;99.90;;;;;;5096320;28;20109;-89
2021/12/04 07:29:26;;;;;;;18.38;2.50;;;5.70;99.90;;;;;;5096933;28;20050;-90
2021/12/04 07:31:53;;;;;;;11.38;2.10;;;5.60;99.90;;;;;;5095931;28;20406;-90
2021/12/04 07:34:21;;;;;;;14.52;2.42;;;5.60;99.90;;;;;;5095982;28;20055;-89
2021/12/04 07:36:49;;;;;;;21.92;3.38;;;5.70;99.90;;;;;;5096418;28;20048;-90
2021/12/04 07:39:16;;;;;;;21.00;2.75;;;5.60;99.90;;;;;;5096273;28;20467;-89
2021/12/04 07:41:44;;;;;;;15.02;2.50;;;5.50;99.90;;;;;;5095663;28;20048;-90
2021/12/04 07:44:11;;;;;;;15.27;2.45;;;5.50;99.90;;;;;;5095458;28;20044;-89
2021/12/04 07:46:39;;;;;;;22.15;3.88;;;5.50;99.90;;;;;;5095955;28;20052;-91
2021/12/04 07:49:07;;;;;;;11.00;2.15;;;5.90;99.90;;;;;;5095756;28;20460;-90
2021/12/04 07:51:34;;;;;;;13.77;2.25;;;5.70;99.90;;;;;;5095969;28;20054;-90
2021/12/04 07:54:04;;;;;;;18.40;1.98;;;4.40;99.90;;;;;;5095728;28;20048;-89
2021/12/04 07:56:31;;;;;;;14.73;2.72;;;5.60;99.90;;;;;;5113074;28;20054;-90
2021/12/04 07:58:59;;;;;;;19.75;3.05;;;6.20;99.90;;;;;;5118232;28;20048;-89
2021/12/04 08:01:27;;;;;;;20.17;2.58;;;5.60;99.90;;;;;;5116581;28;20048;-90
2021/12/04 08:03:54;;;;;;;9.30;1.65;;;5.80;99.90;;;;;;5106360;28;20044;-90
2021/12/04 08:06:22;;;;;;;15.77;2.17;;;5.70;99.90;;;;;;5094959;28;20047;-90
2021/12/04 08:08:52;;;;;;;15.18;2.28;;;5.70;99.90;;;;;;5095059;28;20531;-89
2021/12/04 08:11:20;;;;;;;;;;;5.70;99.90;;;;;;5095673;28;20451;-90
2021/12/04 08:13:48;;;;;;;15.95;2.05;;;5.80;99.90;;;;;;5095557;28;19920;-90
2021/12/04 08:16:15;;;;;;;18.70;3.35;;;5.70;99.90;;;;;;5096181;28;20044;-90
2021/12/04 08:18:42;;;;;;;17.35;2.88;;;5.70;99.90;;;;;;5095396;28;20058;-90
2021/12/04 08:21:09;;;;;;;21.13;3.03;;;5.70;99.90;;;;;;5097118;28;20055;-90
2021/12/04 08:23:36;;;;;;;22.00;1.90;;;5.70;99.90;;;;;;5095068;28;20079;-89
2021/12/04 08:26:03;;;;;;;17.92;3.35;;;5.70;99.90;;;;;;5095045;28;20044;-90
2021/12/04 08:28:32;;;;;;;13.98;2.15;;;5.80;99.90;;;;;;5094090;28;20052;-90
2021/12/04 08:30:59;;;;;;;16.50;2.85;;;5.70;99.90;;;;;;5095081;28;20047;-90
2021/12/04 08:33:27;;;;;;;14.13;2.33;;;6.00;99.90;;;;;;5094853;28;20493;-90
2021/12/04 08:35:54;;;;;;;16.42;2.20;;;5.70;99.90;;;;;;5094944;28;20044;-90
2021/12/04 08:38:22;;;;;;;17.75;2.17;;;5.80;99.90;;;;;;5095415;28;20048;-90
2021/12/04 08:40:49;;;;;;;19.33;3.60;;;5.80;99.90;;;;;;5095113;28;20084;-90
2021/12/04 08:43:16;;;;;;;21.55;3.22;;;5.80;99.90;;;;;;5094958;28;20051;-90
2021/12/04 08:45:45;;;;;;;13.55;2.58;;;5.90;99.90;;;;;;5095025;28;20040;-90
2021/12/04 08:48:13;;;;;;;13.68;1.77;;;5.70;99.90;;;;;;5095317;28;20414;-90
2021/12/04 08:50:41;;;;;;;18.38;2.33;;;6.00;99.90;;;;;;5095536;28;20056;-90
2021/12/04 08:53:09;;;;;;;14.55;2.55;;;6.10;99.90;;;;;;5097808;28;20059;-90
2021/12/04 08:55:38;;;;;;;14.18;4.47;;;6.00;99.90;;;;;;5095300;28;20073;-90
2021/12/04 08:58:07;;;;;;;11.93;2.35;;;5.90;99.90;;;;;;5096049;28;20048;-90
2021/12/04 09:00:39;;;;;;;;;;;6.40;99.90;;;;;;5095751;28;20051;-90
2021/12/04 09:03:09;;;;;;;19.35;3.13;;;6.00;99.90;;;;;;5094771;28;19924;-91
2021/12/04 09:05:37;;;;;;;11.07;2.67;;;6.00;99.90;;;;;;5094833;28;20052;-90
2021/12/04 09:08:05;;;;;;;12.48;2.00;;;6.00;99.90;;;;;;5104425;28;20063;-90
2021/12/04 09:10:33;;;;;;;16.83;2.95;;;6.00;99.90;;;;;;5103304;28;20073;-90
2021/12/04 09:13:00;;;;;;;20.45;2.30;;;6.00;99.90;;;;;;5105345;28;20044;-90
2021/12/04 09:15:31;;;;;;;10.45;2.13;;;6.00;99.90;;;;;;5098220;28;20075;-91
2021/12/04 09:17:58;;;;;;;12.43;2.38;;;6.00;99.90;;;;;;5093724;28;20505;-90
2021/12/04 09:20:29;;;;;;;14.95;1.77;;;6.00;99.90;;;;;;5094252;28;20067;-89
2021/12/04 09:22:56;;;;;;;14.40;2.38;;;6.30;99.90;;;;;;5094468;28;20051;-90
2021/12/04 09:25:25;;;;;;;21.38;3.30;;;6.00;99.90;;;;;;5094234;28;20086;-90
2021/12/04 09:34:03;;;;;;;39.53;4.40;;;5.40;99.90;;;;;;5094538;28;20516;-90
2021/12/04 10:01:35;;;;;;;13.48;2.22;;;6.30;99.90;;;;;;5096865;28;20047;-85
2021/12/04 10:21:18;;;;;;;17.27;3.17;;;6.30;99.90;;;;;;5082643;28;20060;-93
2021/12/04 10:34:58;;;;;;;13.38;2.42;;;6.50;99.90;;;;;;5096348;28;20164;-89
2021/12/04 10:37:29;;;;;;;16.75;2.40;;;6.60;99.90;;;;;;5095087;28;20050;-88
2021/12/04 10:40:00;;;;;;;28.60;3.65;;;6.70;99.90;;;;;;5096607;28;20418;-87
2021/12/04 10:42:33;;;;;;;16.63;3.70;;;7.00;99.90;;;;;;5097794;28;20047;-89
2021/12/04 10:45:01;;;;;;;19.88;3.35;;;6.90;99.90;;;;;;5097063;28;20044;-88
2021/12/04 10:47:28;;;;;;;16.63;2.97;;;6.90;99.90;;;;;;5097811;28;20058;-88
2021/12/04 10:50:12;;;;;;;22.73;3.80;;;7.00;99.90;;;;;;5098119;28;20579;-88
2021/12/04 10:52:50;;;;;;;22.27;4.57;;;7.00;99.90;;;;;;5098259;28;20068;-88
2021/12/04 10:55:20;;;;;;;24.38;4.82;;;7.00;99.90;;;;;;5081805;28;20044;-87
2021/12/04 11:00:44;;;;;;;23.70;3.78;;;7.10;99.90;;;;;;5085573;28;20112;-88
2021/12/04 11:37:00;;;;;;;10.55;2.42;;;7.80;99.90;;;;;;5052991;28;20423;-87
2021/12/04 11:39:56;;;;;;;18.60;4.47;;;7.90;99.90;;;;;;5052522;28;20049;-85
2021/12/04 11:42:30;;;;;;;27.73;4.80;;;7.80;99.90;;;;;;5084493;28;20048;-85
2021/12/04 11:45:09;;;;;;;11.52;2.63;;;7.80;99.90;;;;;;5096304;28;20108;-87
2021/12/04 11:47:39;;;;;;;18.20;3.05;;;7.80;99.90;;;;;;5096884;28;20056;-86
2021/12/04 11:50:22;;;;;;;18.35;3.63;;;7.80;99.90;;;;;;5095344;28;20120;-88
2021/12/04 11:52:52;;;;;;;20.38;3.28;;;7.70;99.90;;;;;;5096634;28;20044;-87
2021/12/04 11:55:21;;;;;;;25.98;3.25;;;7.60;99.90;;;;;;5098656;28;20044;-85
2021/12/04 11:57:49;;;;;;;;;;;7.60;99.90;;;;;;5096158;28;20127;-87
2021/12/04 12:00:23;;;;;;;21.33;3.88;;;7.50;99.90;;;;;;5095602;28;19924;-87
2021/12/04 12:03:04;;;;;;;14.35;3.00;;;7.40;99.90;;;;;;5097085;28;20057;-86
2021/12/04 12:05:32;;;;;;;19.83;4.18;;;7.40;99.90;;;;;;5096243;28;20074;-87
2021/12/04 12:07:59;;;;;;;23.92;3.55;;;7.40;99.90;;;;;;5094657;28;20052;-85
2021/12/04 12:10:28;;;;;;;18.90;3.80;;;7.40;99.90;;;;;;5094494;28;20048;-88
2021/12/04 12:13:04;;;;;;;18.00;3.88;;;7.40;99.90;;;;;;5095745;28;20048;-86
2021/12/04 12:15:35;;;;;;;17.23;2.83;;;7.40;99.90;;;;;;5093770;28;20058;-86
2021/12/04 12:18:13;;;;;;;14.13;2.95;;;7.40;99.90;;;;;;5095861;28;20044;-86
2021/12/04 12:20:44;;;;;;;26.70;4.38;;;7.30;99.90;;;;;;5095008;28;20052;-86
2021/12/04 12:23:14;;;;;;;20.98;3.13;;;7.30;99.90;;;;;;5094976;28;20055;-87
2021/12/04 12:25:59;;;;;;;16.10;3.13;;;7.20;99.90;;;;;;5095971;28;20093;-86
2021/12/04 12:36:02;;;;;;;22.00;4.05;;;7.00;99.90;;;;;;5094717;28;20133;-87
2021/12/04 12:37:18;;;;;;;26.38;4.00;;;6.90;99.90;;;;;;5094503;28;20439;-86
2021/12/04 12:39:53;;;;;;;23.50;3.60;;;6.80;99.90;;;;;;5095186;28;20040;-87
2021/12/04 12:42:29;;;;;;;22.13;4.03;;;6.80;99.90;;;;;;5095512;28;20477;-88
2021/12/04 12:45:11;;;;;;;22.80;4.43;;;6.70;99.90;;;;;;5094865;28;20048;-88
2021/12/04 12:47:48;;;;;;;24.63;4.40;;;6.70;99.90;;;;;;5093998;28;20044;-86
2021/12/04 12:50:28;;;;;;;20.73;3.75;;;6.60;99.90;;;;;;5094069;28;20445;-85
2021/12/04 12:53:04;;;;;;;25.48;3.92;;;6.60;99.90;;;;;;5094061;28;20048;-86
2021/12/04 12:55:35;;;;;;;17.70;3.67;;;6.60;99.90;;;;;;5096028;28;20052;-86
2021/12/04 12:58:21;;;;;;;14.30;3.85;;;6.40;99.90;;;;;;5093776;28;20139;-86
2021/12/04 13:12:02;;;;;;;20.90;4.05;;;6.10;99.90;;;;;;5094403;28;20051;-87
2021/12/04 13:14:31;;;;;;;21.67;4.60;;;6.10;99.90;;;;;;5099219;28;20054;-86
2021/12/04 13:17:06;;;;;;;26.42;4.07;;;6.10;99.90;;;;;;5097669;28;20069;-84
2021/12/04 13:19:36;;;;;;;15.98;3.50;;;6.20;99.90;;;;;;5098065;28;20058;-86
2021/12/04 13:22:08;;;;;;;21.30;4.25;;;6.20;99.90;;;;;;5093481;28;20086;-85
2021/12/04 13:24:40;;;;;;;16.90;3.28;;;6.20;99.90;;;;;;5094242;28;20074;-86
2021/12/04 13:29:39;;;;;;;21.35;3.58;;;6.20;99.90;;;;;;5093389;28;20460;-87
2021/12/04 13:32:11;;;;;;;18.58;3.65;;;6.20;99.90;;;;;;5093006;28;20052;-86
2021/12/04 13:34:40;;;;;;;26.15;4.18;;;6.20;99.90;;;;;;5093551;28;20140;-86
2021/12/04 13:37:09;;;;;;;26.52;3.75;;;6.30;99.90;;;;;;5094384;28;20113;-86
2021/12/04 13:39:38;;;;;;;28.02;4.88;;;6.30;99.90;;;;;;5094088;28;20048;-85
2021/12/04 13:42:06;;;;;;;26.23;3.63;;;6.40;99.90;;;;;;5093258;28;20464;-85
2021/12/04 13:44:35;;;;;;;30.30;3.83;;;6.40;99.90;;;;;;5093464;28;20189;-84
2021/12/04 13:47:05;;;;;;;22.75;4.35;;;6.50;99.90;;;;;;5093265;28;20047;-86
2021/12/04 13:49:35;;;;;;;23.08;5.47;;;6.40;99.90;;;;;;5094285;28;20126;-86
2021/12/04 13:52:06;;;;;;;27.67;5.03;;;6.40;99.90;;;;;;5093745;28;20051;-86
2021/12/04 13:54:38;;;;;;;24.77;5.38;;;6.40;99.90;;;;;;5093431;28;20184;-88
2021/12/04 13:57:09;;;;;;;15.23;3.33;;;6.40;99.90;;;;;;5094217;28;20093;-87
2021/12/04 13:59:36;;;;;;;29.27;5.50;;;6.30;99.90;;;;;;5094153;28;20109;-86
2021/12/04 14:02:03;;;;;;;23.83;4.80;;;6.30;99.90;;;;;;5093675;28;20436;-87
2021/12/04 14:04:30;;;;;;;27.23;5.07;;;6.20;99.90;;;;;;5093442;28;20231;-86
2021/12/04 14:07:00;;;;;;;23.42;4.60;;;6.20;99.90;;;;;;5093148;28;20044;-86
2021/12/04 14:09:32;;;;;;;19.33;2.67;;;6.30;99.90;;;;;;5093215;28;20044;-86
2021/12/04 14:12:01;;;;;;;18.35;2.65;;;6.30;99.90;;;;;;5093298;28;20398;-85
2021/12/04 14:14:30;;;;;;;26.80;3.78;;;6.30;99.90;;;;;;5093124;28;20458;-86
2021/12/04 14:17:06;;;;;;;21.75;3.65;;;6.30;99.90;;;;;;5093947;28;20044;-85
2021/12/04 14:19:34;;;;;;;20.80;4.10;;;6.40;99.90;;;;;;5093294;28;20059;-86
2021/12/04 14:22:03;;;;;;;26.20;5.78;;;6.40;99.90;;;;;;5093669;28;20048;-87
2021/12/04 14:24:32;;;;;;;21.08;3.88;;;6.40;99.90;;;;;;5093240;28;20055;-86
2021/12/04 14:27:03;;;;;;;19.13;3.65;;;6.40;99.90;;;;;;5096247;28;20048;-86
2021/12/04 14:29:35;;;;;;;21.08;2.97;;;6.40;99.90;;;;;;5096643;28;20051;-86
2021/12/04 14:32:03;;;;;;;23.98;4.60;;;6.50;99.90;;;;;;5096812;28;20117;-86
2021/12/04 14:34:31;;;;;;;18.85;3.03;;;6.50;99.90;;;;;;5096729;28;20048;-86
2021/12/04 14:37:04;;;;;;;25.35;5.03;;;6.50;99.90;;;;;;5096547;28;20051;-86
2021/12/04 14:39:31;;;;;;;32.55;4.40;;;6.50;99.90;;;;;;5096713;28;20131;-86
2021/12/04 14:42:00;;;;;;;24.20;4.03;;;6.50;99.90;;;;;;5096676;28;20056;-87
2021/12/04 14:44:27;;;;;;;20.90;3.43;;;6.50;99.90;;;;;;5097625;28;20040;-85
2021/12/04 14:46:54;;;;;;;18.05;3.28;;;6.50;99.90;;;;;;5098019;28;20479;-86
2021/12/04 14:49:22;;;;;;;23.50;4.30;;;6.50;99.90;;;;;;5096484;28;20395;-87
2021/12/04 14:51:49;;;;;;;19.40;4.38;;;6.50;99.90;;;;;;5099288;28;20052;-86
2021/12/04 14:54:26;;;;;;;17.23;3.20;;;6.60;99.90;;;;;;5096694;28;20101;-85
2021/12/04 14:56:53;;;;;;;18.42;5.28;;;6.80;99.90;;;;;;5097292;28;20040;-84
2021/12/04 14:59:22;;;;;;;11.18;2.78;;;6.50;99.90;;;;;;5096776;28;20052;-84
2021/12/04 15:01:49;;;;;;;15.15;2.30;;;6.60;99.90;;;;;;5097087;28;20053;-85
2021/12/04 15:04:16;;;;;;;24.92;3.20;;;6.60;99.90;;;;;;5096514;28;20725;-85
2021/12/04 15:06:43;;;;;;;18.58;4.50;;;6.60;99.90;;;;;;5096349;28;20384;-85
2021/12/04 15:09:14;;;;;;;32.85;5.97;;;6.80;99.90;;;;;;5096318;28;20489;-85
2021/12/04 15:11:43;;;;;;;19.80;4.00;;;6.70;99.90;;;;;;5096599;28;20117;-86
2021/12/04 15:14:12;;;;;;;;;;;6.70;99.90;;;;;;5098370;28;20047;-84
2021/12/04 15:16:46;;;;;;;15.85;3.38;;;6.70;99.90;;;;;;5098713;28;19923;-85
2021/12/04 15:19:21;;;;;;;20.60;5.40;;;6.70;99.90;;;;;;5097109;28;20044;-86
2021/12/04 15:21:52;;;;;;;19.10;3.67;;;6.80;99.90;;;;;;5096935;28;20445;-86
2021/12/04 15:24:23;;;;;;;16.08;2.78;;;6.70;99.90;;;;;;5095710;28;20513;-84
2021/12/04 15:26:53;;;;;;;17.05;2.78;;;6.70;99.90;;;;;;5096217;28;20048;-85
2021/12/04 15:29:23;;;;;;;15.88;3.22;;;6.50;99.90;;;;;;5097112;28;20109;-85
2021/12/04 15:31:53;;;;;;;19.35;3.40;;;6.40;99.90;;;;;;5095814;28;20052;-85
2021/12/04 15:34:31;;;;;;;20.52;4.97;;;6.30;99.90;;;;;;5095860;28;20567;-84
2021/12/04 15:37:02;;;;;;;21.85;3.60;;;6.30;99.90;;;;;;5095640;28;20044;-85
2021/12/04 15:39:32;;;;;;;17.20;4.10;;;6.30;99.90;;;;;;5095194;28;20164;-86
2021/12/04 15:42:16;;;;;;;18.70;3.10;;;6.30;99.90;;;;;;5095744;28;20060;-87
2021/12/04 15:44:55;;;;;;;25.15;4.38;;;6.40;99.90;;;;;;5095663;28;20051;-86
2021/12/04 15:47:30;;;;;;;17.52;3.58;;;6.10;99.90;;;;;;5095146;28;20051;-87